This is the latest recevied weather packets stored in our database for station/object HS0TK-1. If no packets are shown the sender has not sent any weather packets the latest 10 day(s).
| Time | Temp. | Humidity | Pressure | Rain* | Wind** | Luminosity | Snow |
|---|---|---|---|---|---|---|---|
| 1777729642 | 35° C | 45% | 1008 hPa | - | - | 0 W/m² | - |
| 1777728716 | 34.44° C | 45% | 1007 hPa | - | - | 0 W/m² | - |
| 1777727784 | 35° C | 43% | 1007 hPa | - | - | 0 W/m² | - |
| 1777726830 | 34.44° C | 43% | 1007 hPa | - | - | 0 W/m² | - |
| 1777725889 | 34.44° C | 43% | 1006 hPa | - | - | 0 W/m² | - |
| 1777724942 | 34.44° C | 43% | 1006 hPa | - | - | 0 W/m² | - |
| 1777724015 | 33.89° C | 43% | 1006 hPa | - | - | 0 W/m² | - |
| 1777723088 | 33.89° C | 44% | 1005 hPa | - | - | 0 W/m² | - |
| 1777722159 | 33.89° C | 44% | 1005 hPa | - | - | 0 W/m² | - |
| 1777722096 | 33.33° C | 43% | 1005 hPa | - | - | 0 W/m² | - |
| 1777721168 | 31.67° C | 31% | 1005 hPa | - | - | 0 W/m² | - |
| 1777720240 | 31.11° C | 33% | 1005 hPa | - | - | 0 W/m² | - |
| 1777719310 | 31.67° C | 31% | 1005 hPa | - | - | 0 W/m² | - |
| 1777718377 | 32.22° C | 33% | 1005 hPa | - | - | 0 W/m² | - |
| 1777717449 | 32.22° C | 34% | 1005 hPa | - | - | 0 W/m² | - |
| 1777716523 | 32.22° C | 36% | 1005 hPa | - | - | 0 W/m² | - |
| 1777715598 | 31.67° C | 34% | 1005 hPa | - | - | 0 W/m² | - |
| 1777714668 | 31.67° C | 34% | 1005 hPa | - | - | 0 W/m² | - |
| 1777713742 | 31.67° C | 35% | 1005 hPa | - | - | 0 W/m² | - |
| 1777712811 | 31.67° C | 35% | 1005 hPa | - | - | 0 W/m² | - |
| 1777711884 | 31.67° C | 35% | 1005 hPa | - | - | 0 W/m² | - |
| 1777710958 | 31.67° C | 35% | 1005 hPa | - | - | 0 W/m² | - |
| 1777710012 | 31.67° C | 35% | 1006 hPa | - | - | 0 W/m² | - |
| 1777709066 | 31.67° C | 36% | 1006 hPa | - | - | 0 W/m² | - |
| 1777708139 | 31.67° C | 37% | 1006 hPa | - | - | 0 W/m² | - |
* Rain since midnight (hover to see other rain measurements)
** Current wind speed in m/s (hover to see current wind gust speed)